sensor_id;sensor_type;location;lat;lon;timestamp;P1;durP1;ratioP1;P2;durP2;ratioP2
7487;SDS011;3785;52.260;4.728;2022-08-03T00:01:42;2.97;;;0.95;;
7487;SDS011;3785;52.260;4.728;2022-08-03T00:05:02;1.45;;;0.88;;
7487;SDS011;3785;52.260;4.728;2022-08-03T00:08:23;2.95;;;1.00;;
7487;SDS011;3785;52.260;4.728;2022-08-03T00:11:44;2.15;;;0.90;;
7487;SDS011;3785;52.260;4.728;2022-08-03T00:15:04;4.90;;;1.23;;
7487;SDS011;3785;52.260;4.728;2022-08-03T00:18:25;3.22;;;0.90;;
7487;SDS011;3785;52.260;4.728;2022-08-03T00:21:46;3.65;;;0.90;;
7487;SDS011;3785;52.260;4.728;2022-08-03T00:25:06;2.90;;;0.95;;
7487;SDS011;3785;52.260;4.728;2022-08-03T00:28:27;3.85;;;1.10;;
7487;SDS011;3785;52.260;4.728;2022-08-03T00:31:47;2.25;;;1.00;;
7487;SDS011;3785;52.260;4.728;2022-08-03T00:35:08;2.50;;;1.00;;
7487;SDS011;3785;52.260;4.728;2022-08-03T00:38:29;2.00;;;0.98;;
7487;SDS011;3785;52.260;4.728;2022-08-03T00:41:49;2.42;;;0.95;;
7487;SDS011;3785;52.260;4.728;2022-08-03T00:45:10;3.97;;;1.02;;
7487;SDS011;3785;52.260;4.728;2022-08-03T00:48:30;3.78;;;0.80;;
7487;SDS011;3785;52.260;4.728;2022-08-03T00:51:51;5.38;;;1.13;;
7487;SDS011;3785;52.260;4.728;2022-08-03T00:55:12;6.60;;;1.13;;
7487;SDS011;3785;52.260;4.728;2022-08-03T00:58:32;3.38;;;1.30;;
7487;SDS011;3785;52.260;4.728;2022-08-03T01:01:53;4.82;;;1.35;;
7487;SDS011;3785;52.260;4.728;2022-08-03T01:05:13;3.20;;;1.10;;
7487;SDS011;3785;52.260;4.728;2022-08-03T01:12:34;5.63;;;1.02;;
7487;SDS011;3785;52.260;4.728;2022-08-03T01:16:01;2.40;;;1.05;;
7487;SDS011;3785;52.260;4.728;2022-08-03T01:26:57;4.90;;;1.30;;
7487;SDS011;3785;52.260;4.728;2022-08-03T01:30:23;3.88;;;1.08;;
7487;SDS011;3785;52.260;4.728;2022-08-03T01:33:49;2.65;;;1.10;;
7487;SDS011;3785;52.260;4.728;2022-08-03T01:37:15;4.60;;;2.08;;
7487;SDS011;3785;52.260;4.728;2022-08-03T01:40:41;2.95;;;1.08;;
7487;SDS011;3785;52.260;4.728;2022-08-03T01:44:05;3.58;;;1.25;;
7487;SDS011;3785;52.260;4.728;2022-08-03T01:47:27;3.17;;;1.00;;
7487;SDS011;3785;52.260;4.728;2022-08-03T01:50:48;4.03;;;1.27;;
7487;SDS011;3785;52.260;4.728;2022-08-03T01:54:10;4.20;;;1.40;;
7487;SDS011;3785;52.260;4.728;2022-08-03T01:57:33;3.78;;;1.30;;
7487;SDS011;3785;52.260;4.728;2022-08-03T02:00:54;4.97;;;1.70;;
7487;SDS011;3785;52.260;4.728;2022-08-03T02:04:18;3.00;;;1.40;;
7487;SDS011;3785;52.260;4.728;2022-08-03T02:07:39;3.75;;;1.63;;
7487;SDS011;3785;52.260;4.728;2022-08-03T02:11:01;4.45;;;1.30;;
7487;SDS011;3785;52.260;4.728;2022-08-03T02:14:22;4.25;;;1.40;;
7487;SDS011;3785;52.260;4.728;2022-08-03T02:17:43;3.53;;;1.25;;
7487;SDS011;3785;52.260;4.728;2022-08-03T02:21:05;7.00;;;1.67;;
7487;SDS011;3785;52.260;4.728;2022-08-03T02:24:27;3.13;;;1.10;;
7487;SDS011;3785;52.260;4.728;2022-08-03T02:27:54;3.17;;;1.40;;
7487;SDS011;3785;52.260;4.728;2022-08-03T02:31:18;3.65;;;1.55;;
7487;SDS011;3785;52.260;4.728;2022-08-03T02:34:46;3.67;;;1.30;;
7487;SDS011;3785;52.260;4.728;2022-08-03T02:38:09;4.85;;;1.10;;
7487;SDS011;3785;52.260;4.728;2022-08-03T02:41:34;4.85;;;1.60;;
7487;SDS011;3785;52.260;4.728;2022-08-03T02:44:58;2.85;;;1.20;;
7487;SDS011;3785;52.260;4.728;2022-08-03T02:48:21;6.82;;;1.45;;
7487;SDS011;3785;52.260;4.728;2022-08-03T02:51:46;3.83;;;1.10;;
7487;SDS011;3785;52.260;4.728;2022-08-03T02:55:07;2.88;;;1.17;;
7487;SDS011;3785;52.260;4.728;2022-08-03T02:58:28;2.55;;;1.10;;
7487;SDS011;3785;52.260;4.728;2022-08-03T03:01:50;2.92;;;1.30;;
7487;SDS011;3785;52.260;4.728;2022-08-03T03:05:12;2.42;;;1.10;;
7487;SDS011;3785;52.260;4.728;2022-08-03T03:08:34;3.13;;;1.35;;
7487;SDS011;3785;52.260;4.728;2022-08-03T03:11:54;3.80;;;2.10;;
7487;SDS011;3785;52.260;4.728;2022-08-03T03:15:16;5.00;;;1.55;;
7487;SDS011;3785;52.260;4.728;2022-08-03T03:18:36;3.58;;;1.52;;
7487;SDS011;3785;52.260;4.728;2022-08-03T03:21:57;3.67;;;1.27;;
7487;SDS011;3785;52.260;4.728;2022-08-03T03:25:20;2.40;;;1.40;;
7487;SDS011;3785;52.260;4.728;2022-08-03T03:28:40;3.67;;;1.27;;
7487;SDS011;3785;52.260;4.728;2022-08-03T03:32:01;5.00;;;1.48;;
7487;SDS011;3785;52.260;4.728;2022-08-03T03:35:23;5.53;;;1.50;;
7487;SDS011;3785;52.260;4.728;2022-08-03T03:38:44;3.67;;;1.35;;
7487;SDS011;3785;52.260;4.728;2022-08-03T03:42:05;6.28;;;1.38;;
7487;SDS011;3785;52.260;4.728;2022-08-03T03:45:25;2.58;;;1.45;;
7487;SDS011;3785;52.260;4.728;2022-08-03T03:48:46;3.17;;;1.45;;
7487;SDS011;3785;52.260;4.728;2022-08-03T03:52:07;3.97;;;1.42;;
7487;SDS011;3785;52.260;4.728;2022-08-03T03:55:28;3.45;;;2.05;;
7487;SDS011;3785;52.260;4.728;2022-08-03T03:58:49;4.57;;;1.88;;
7487;SDS011;3785;52.260;4.728;2022-08-03T04:02:10;2.53;;;1.60;;
7487;SDS011;3785;52.260;4.728;2022-08-03T04:05:31;3.80;;;1.77;;
7487;SDS011;3785;52.260;4.728;2022-08-03T04:09:10;4.53;;;1.60;;
7487;SDS011;3785;52.260;4.728;2022-08-03T04:12:49;3.22;;;1.60;;
7487;SDS011;3785;52.260;4.728;2022-08-03T04:16:11;5.55;;;1.60;;
7487;SDS011;3785;52.260;4.728;2022-08-03T04:19:37;5.15;;;1.80;;
7487;SDS011;3785;52.260;4.728;2022-08-03T04:23:01;5.40;;;2.00;;
7487;SDS011;3785;52.260;4.728;2022-08-03T04:26:23;4.85;;;2.20;;
7487;SDS011;3785;52.260;4.728;2022-08-03T04:29:45;8.77;;;2.17;;
7487;SDS011;3785;52.260;4.728;2022-08-03T04:33:06;5.93;;;2.20;;
7487;SDS011;3785;52.260;4.728;2022-08-03T04:36:29;7.30;;;2.30;;
7487;SDS011;3785;52.260;4.728;2022-08-03T04:39:52;3.72;;;1.80;;
7487;SDS011;3785;52.260;4.728;2022-08-03T04:43:14;3.92;;;1.50;;
7487;SDS011;3785;52.260;4.728;2022-08-03T04:46:37;6.28;;;1.85;;
7487;SDS011;3785;52.260;4.728;2022-08-03T04:49:59;4.30;;;1.88;;
7487;SDS011;3785;52.260;4.728;2022-08-03T04:53:20;2.58;;;1.63;;
7487;SDS011;3785;52.260;4.728;2022-08-03T04:56:44;5.95;;;1.70;;
7487;SDS011;3785;52.260;4.728;2022-08-03T05:00:05;4.47;;;1.60;;
7487;SDS011;3785;52.260;4.728;2022-08-03T05:03:26;4.68;;;1.60;;
7487;SDS011;3785;52.260;4.728;2022-08-03T05:06:46;4.88;;;1.27;;
7487;SDS011;3785;52.260;4.728;2022-08-03T05:10:08;7.55;;;1.92;;
7487;SDS011;3785;52.260;4.728;2022-08-03T05:13:29;7.25;;;2.00;;
7487;SDS011;3785;52.260;4.728;2022-08-03T05:16:50;5.95;;;1.85;;
7487;SDS011;3785;52.260;4.728;2022-08-03T05:20:10;6.18;;;2.10;;
7487;SDS011;3785;52.260;4.728;2022-08-03T05:23:31;3.38;;;1.70;;
7487;SDS011;3785;52.260;4.728;2022-08-03T05:26:52;5.13;;;2.03;;
7487;SDS011;3785;52.260;4.728;2022-08-03T05:30:12;6.03;;;2.10;;
7487;SDS011;3785;52.260;4.728;2022-08-03T05:33:33;5.18;;;2.05;;
7487;SDS011;3785;52.260;4.728;2022-08-03T05:36:54;4.55;;;1.90;;
7487;SDS011;3785;52.260;4.728;2022-08-03T05:40:14;6.13;;;2.08;;
7487;SDS011;3785;52.260;4.728;2022-08-03T05:43:35;4.35;;;2.33;;
7487;SDS011;3785;52.260;4.728;2022-08-03T05:46:56;6.35;;;2.55;;
7487;SDS011;3785;52.260;4.728;2022-08-03T05:50:20;6.97;;;2.67;;
7487;SDS011;3785;52.260;4.728;2022-08-03T05:53:41;4.95;;;2.50;;
7487;SDS011;3785;52.260;4.728;2022-08-03T05:57:02;6.43;;;3.33;;
7487;SDS011;3785;52.260;4.728;2022-08-03T06:00:22;6.18;;;3.00;;
7487;SDS011;3785;52.260;4.728;2022-08-03T06:03:44;9.30;;;2.92;;
7487;SDS011;3785;52.260;4.728;2022-08-03T06:07:04;5.35;;;3.00;;
7487;SDS011;3785;52.260;4.728;2022-08-03T06:10:25;6.63;;;3.92;;
7487;SDS011;3785;52.260;4.728;2022-08-03T06:13:46;7.82;;;3.97;;
7487;SDS011;3785;52.260;4.728;2022-08-03T06:17:06;6.30;;;3.95;;
7487;SDS011;3785;52.260;4.728;2022-08-03T06:20:27;10.10;;;4.30;;
7487;SDS011;3785;52.260;4.728;2022-08-03T06:23:47;7.38;;;4.20;;
7487;SDS011;3785;52.260;4.728;2022-08-03T06:27:08;7.63;;;5.35;;
7487;SDS011;3785;52.260;4.728;2022-08-03T06:30:31;6.43;;;4.05;;
7487;SDS011;3785;52.260;4.728;2022-08-03T06:33:51;6.82;;;4.05;;
7487;SDS011;3785;52.260;4.728;2022-08-03T06:37:12;10.65;;;4.50;;
7487;SDS011;3785;52.260;4.728;2022-08-03T06:40:34;8.48;;;4.15;;
7487;SDS011;3785;52.260;4.728;2022-08-03T06:43:58;11.63;;;4.18;;
7487;SDS011;3785;52.260;4.728;2022-08-03T06:47:19;6.70;;;4.32;;
7487;SDS011;3785;52.260;4.728;2022-08-03T06:50:43;8.63;;;3.95;;
7487;SDS011;3785;52.260;4.728;2022-08-03T06:54:03;7.90;;;4.57;;
7487;SDS011;3785;52.260;4.728;2022-08-03T06:57:24;9.77;;;5.53;;
7487;SDS011;3785;52.260;4.728;2022-08-03T07:00:45;5.63;;;4.40;;
7487;SDS011;3785;52.260;4.728;2022-08-03T07:04:05;8.90;;;5.35;;
7487;SDS011;3785;52.260;4.728;2022-08-03T07:07:26;13.82;;;6.28;;
7487;SDS011;3785;52.260;4.728;2022-08-03T07:10:46;9.70;;;6.22;;
7487;SDS011;3785;52.260;4.728;2022-08-03T07:14:07;11.15;;;6.60;;
7487;SDS011;3785;52.260;4.728;2022-08-03T07:17:31;10.75;;;6.72;;
7487;SDS011;3785;52.260;4.728;2022-08-03T07:20:53;12.23;;;6.97;;
7487;SDS011;3785;52.260;4.728;2022-08-03T07:24:13;13.40;;;7.53;;
7487;SDS011;3785;52.260;4.728;2022-08-03T07:27:34;11.82;;;7.40;;
7487;SDS011;3785;52.260;4.728;2022-08-03T07:30:54;12.27;;;8.35;;
7487;SDS011;3785;52.260;4.728;2022-08-03T07:34:15;11.00;;;8.15;;
7487;SDS011;3785;52.260;4.728;2022-08-03T07:37:36;10.63;;;7.78;;
7487;SDS011;3785;52.260;4.728;2022-08-03T07:40:56;13.25;;;8.30;;
7487;SDS011;3785;52.260;4.728;2022-08-03T07:44:17;10.35;;;7.88;;
7487;SDS011;3785;52.260;4.728;2022-08-03T07:47:38;15.18;;;8.18;;
7487;SDS011;3785;52.260;4.728;2022-08-03T07:50:59;13.65;;;8.10;;
7487;SDS011;3785;52.260;4.728;2022-08-03T07:54:19;11.05;;;8.07;;
7487;SDS011;3785;52.260;4.728;2022-08-03T07:57:40;10.82;;;6.47;;
7487;SDS011;3785;52.260;4.728;2022-08-03T08:01:01;9.02;;;6.63;;
7487;SDS011;3785;52.260;4.728;2022-08-03T08:04:22;12.45;;;7.25;;
7487;SDS011;3785;52.260;4.728;2022-08-03T08:07:42;7.20;;;5.32;;
7487;SDS011;3785;52.260;4.728;2022-08-03T08:11:03;10.98;;;6.20;;
7487;SDS011;3785;52.260;4.728;2022-08-03T08:14:24;7.65;;;6.10;;
7487;SDS011;3785;52.260;4.728;2022-08-03T08:17:52;8.18;;;5.25;;
7487;SDS011;3785;52.260;4.728;2022-08-03T08:21:13;9.23;;;5.28;;
7487;SDS011;3785;52.260;4.728;2022-08-03T08:24:34;9.20;;;7.43;;
7487;SDS011;3785;52.260;4.728;2022-08-03T08:27:54;6.38;;;5.07;;
7487;SDS011;3785;52.260;4.728;2022-08-03T08:31:15;9.23;;;5.13;;
7487;SDS011;3785;52.260;4.728;2022-08-03T08:34:36;7.20;;;5.25;;
7487;SDS011;3785;52.260;4.728;2022-08-03T08:37:58;11.25;;;4.97;;
7487;SDS011;3785;52.260;4.728;2022-08-03T08:41:19;6.93;;;4.82;;
7487;SDS011;3785;52.260;4.728;2022-08-03T08:44:40;8.40;;;4.50;;
7487;SDS011;3785;52.260;4.728;2022-08-03T08:48:01;6.93;;;4.47;;
7487;SDS011;3785;52.260;4.728;2022-08-03T08:51:22;7.63;;;4.80;;
7487;SDS011;3785;52.260;4.728;2022-08-03T08:54:47;6.30;;;4.93;;
7487;SDS011;3785;52.260;4.728;2022-08-03T08:58:08;7.85;;;4.82;;
7487;SDS011;3785;52.260;4.728;2022-08-03T09:01:29;7.13;;;4.82;;
7487;SDS011;3785;52.260;4.728;2022-08-03T09:04:50;7.72;;;4.32;;
7487;SDS011;3785;52.260;4.728;2022-08-03T09:08:11;9.00;;;3.83;;
7487;SDS011;3785;52.260;4.728;2022-08-03T09:11:32;9.43;;;4.40;;
7487;SDS011;3785;52.260;4.728;2022-08-03T09:14:53;7.50;;;4.43;;
7487;SDS011;3785;52.260;4.728;2022-08-03T09:18:20;7.70;;;4.50;;
7487;SDS011;3785;52.260;4.728;2022-08-03T09:21:53;5.88;;;4.32;;
7487;SDS011;3785;52.260;4.728;2022-08-03T09:25:33;6.32;;;4.82;;
7487;SDS011;3785;52.260;4.728;2022-08-03T09:28:57;7.07;;;4.50;;
7487;SDS011;3785;52.260;4.728;2022-08-03T09:32:23;8.30;;;4.03;;
7487;SDS011;3785;52.260;4.728;2022-08-03T09:35:45;6.85;;;4.50;;
7487;SDS011;3785;52.260;4.728;2022-08-03T09:39:07;7.25;;;4.30;;
7487;SDS011;3785;52.260;4.728;2022-08-03T09:42:54;6.90;;;4.30;;
7487;SDS011;3785;52.260;4.728;2022-08-03T09:46:15;6.30;;;4.30;;
7487;SDS011;3785;52.260;4.728;2022-08-03T09:49:37;5.53;;;3.95;;
7487;SDS011;3785;52.260;4.728;2022-08-03T09:53:00;7.00;;;3.95;;
7487;SDS011;3785;52.260;4.728;2022-08-03T09:56:22;6.40;;;4.50;;
7487;SDS011;3785;52.260;4.728;2022-08-03T10:00:10;7.05;;;3.63;;
7487;SDS011;3785;52.260;4.728;2022-08-03T10:03:33;7.07;;;3.65;;
7487;SDS011;3785;52.260;4.728;2022-08-03T10:10:25;5.38;;;3.80;;
7487;SDS011;3785;52.260;4.728;2022-08-03T10:13:45;5.85;;;3.72;;
7487;SDS011;3785;52.260;4.728;2022-08-03T10:17:06;6.38;;;3.55;;
7487;SDS011;3785;52.260;4.728;2022-08-03T10:20:28;7.80;;;3.92;;
7487;SDS011;3785;52.260;4.728;2022-08-03T10:23:49;5.85;;;2.92;;
7487;SDS011;3785;52.260;4.728;2022-08-03T10:27:10;6.40;;;3.17;;
7487;SDS011;3785;52.260;4.728;2022-08-03T10:30:32;7.22;;;3.63;;
7487;SDS011;3785;52.260;4.728;2022-08-03T10:33:53;8.27;;;3.15;;
7487;SDS011;3785;52.260;4.728;2022-08-03T10:37:17;4.28;;;3.17;;
7487;SDS011;3785;52.260;4.728;2022-08-03T10:40:38;9.13;;;3.63;;
7487;SDS011;3785;52.260;4.728;2022-08-03T10:44:06;4.55;;;2.67;;
7487;SDS011;3785;52.260;4.728;2022-08-03T10:47:29;5.93;;;2.90;;
7487;SDS011;3785;52.260;4.728;2022-08-03T10:50:50;4.95;;;3.35;;
7487;SDS011;3785;52.260;4.728;2022-08-03T11:01:55;4.72;;;2.90;;
7487;SDS011;3785;52.260;4.728;2022-08-03T11:05:23;6.55;;;2.67;;
7487;SDS011;3785;52.260;4.728;2022-08-03T11:08:48;4.85;;;2.40;;
7487;SDS011;3785;52.260;4.728;2022-08-03T11:16:01;4.15;;;2.72;;
7487;SDS011;3785;52.260;4.728;2022-08-03T11:19:23;4.05;;;2.80;;
7487;SDS011;3785;52.260;4.728;2022-08-03T11:23:06;6.20;;;3.22;;
7487;SDS011;3785;52.260;4.728;2022-08-03T11:26:26;7.63;;;2.90;;
7487;SDS011;3785;52.260;4.728;2022-08-03T11:29:54;5.78;;;2.45;;
7487;SDS011;3785;52.260;4.728;2022-08-03T11:33:27;7.43;;;2.38;;
7487;SDS011;3785;52.260;4.728;2022-08-03T11:44:00;4.80;;;1.80;;
7487;SDS011;3785;52.260;4.728;2022-08-03T11:47:22;6.13;;;2.25;;
7487;SDS011;3785;52.260;4.728;2022-08-03T11:50:45;4.38;;;2.47;;
7487;SDS011;3785;52.260;4.728;2022-08-03T11:54:06;3.75;;;1.67;;
7487;SDS011;3785;52.260;4.728;2022-08-03T11:57:27;5.57;;;2.30;;
7487;SDS011;3785;52.260;4.728;2022-08-03T12:00:56;5.10;;;2.50;;
7487;SDS011;3785;52.260;4.728;2022-08-03T12:04:27;4.53;;;2.45;;
7487;SDS011;3785;52.260;4.728;2022-08-03T12:07:47;7.57;;;2.22;;
7487;SDS011;3785;52.260;4.728;2022-08-03T12:11:08;7.40;;;1.92;;
7487;SDS011;3785;52.260;4.728;2022-08-03T12:14:30;4.85;;;1.95;;
7487;SDS011;3785;52.260;4.728;2022-08-03T12:17:51;6.35;;;1.73;;
7487;SDS011;3785;52.260;4.728;2022-08-03T12:21:11;5.28;;;1.65;;
7487;SDS011;3785;52.260;4.728;2022-08-03T12:24:42;4.35;;;1.70;;
7487;SDS011;3785;52.260;4.728;2022-08-03T12:31:37;5.53;;;2.03;;
7487;SDS011;3785;52.260;4.728;2022-08-03T12:34:58;4.35;;;1.60;;
7487;SDS011;3785;52.260;4.728;2022-08-03T12:38:22;5.20;;;1.25;;
7487;SDS011;3785;52.260;4.728;2022-08-03T12:41:42;4.57;;;1.50;;
7487;SDS011;3785;52.260;4.728;2022-08-03T12:45:23;5.03;;;1.52;;
7487;SDS011;3785;52.260;4.728;2022-08-03T12:48:56;2.85;;;1.23;;
7487;SDS011;3785;52.260;4.728;2022-08-03T12:52:23;5.40;;;1.55;;
7487;SDS011;3785;52.260;4.728;2022-08-03T12:55:46;5.15;;;1.35;;
7487;SDS011;3785;52.260;4.728;2022-08-03T13:03:05;5.05;;;1.52;;
7487;SDS011;3785;52.260;4.728;2022-08-03T13:06:26;3.00;;;1.10;;
7487;SDS011;3785;52.260;4.728;2022-08-03T13:09:48;2.95;;;1.17;;
7487;SDS011;3785;52.260;4.728;2022-08-03T13:13:11;3.55;;;1.10;;
7487;SDS011;3785;52.260;4.728;2022-08-03T13:16:32;5.05;;;1.25;;
7487;SDS011;3785;52.260;4.728;2022-08-03T13:19:53;3.55;;;1.13;;
7487;SDS011;3785;52.260;4.728;2022-08-03T13:23:15;5.30;;;1.10;;
7487;SDS011;3785;52.260;4.728;2022-08-03T13:26:35;5.40;;;1.30;;
7487;SDS011;3785;52.260;4.728;2022-08-03T13:29:56;4.68;;;0.90;;
7487;SDS011;3785;52.260;4.728;2022-08-03T13:33:17;2.42;;;1.13;;
7487;SDS011;3785;52.260;4.728;2022-08-03T13:36:38;5.05;;;1.20;;
7487;SDS011;3785;52.260;4.728;2022-08-03T13:39:59;5.40;;;1.27;;
7487;SDS011;3785;52.260;4.728;2022-08-03T13:43:20;2.42;;;1.08;;
7487;SDS011;3785;52.260;4.728;2022-08-03T13:46:41;3.63;;;1.30;;
7487;SDS011;3785;52.260;4.728;2022-08-03T13:50:02;4.20;;;1.10;;
7487;SDS011;3785;52.260;4.728;2022-08-03T13:53:23;5.65;;;1.55;;
7487;SDS011;3785;52.260;4.728;2022-08-03T13:56:43;4.45;;;1.20;;
7487;SDS011;3785;52.260;4.728;2022-08-03T14:00:11;2.47;;;1.20;;
7487;SDS011;3785;52.260;4.728;2022-08-03T14:03:32;2.90;;;0.98;;
7487;SDS011;3785;52.260;4.728;2022-08-03T14:06:53;2.58;;;0.93;;
7487;SDS011;3785;52.260;4.728;2022-08-03T14:10:13;2.50;;;0.98;;
7487;SDS011;3785;52.260;4.728;2022-08-03T14:13:34;2.17;;;1.05;;
7487;SDS011;3785;52.260;4.728;2022-08-03T14:16:54;3.70;;;1.00;;
7487;SDS011;3785;52.260;4.728;2022-08-03T14:20:15;3.13;;;1.05;;
7487;SDS011;3785;52.260;4.728;2022-08-03T14:23:36;2.03;;;0.70;;
7487;SDS011;3785;52.260;4.728;2022-08-03T14:26:57;2.20;;;0.90;;
7487;SDS011;3785;52.260;4.728;2022-08-03T14:30:17;1.77;;;0.75;;
7487;SDS011;3785;52.260;4.728;2022-08-03T14:33:38;2.13;;;1.02;;
7487;SDS011;3785;52.260;4.728;2022-08-03T14:36:59;1.80;;;0.70;;
7487;SDS011;3785;52.260;4.728;2022-08-03T14:40:19;2.90;;;0.60;;
7487;SDS011;3785;52.260;4.728;2022-08-03T14:43:40;2.55;;;0.50;;
7487;SDS011;3785;52.260;4.728;2022-08-03T14:47:01;4.53;;;0.80;;
7487;SDS011;3785;52.260;4.728;2022-08-03T14:50:21;3.40;;;1.00;;
7487;SDS011;3785;52.260;4.728;2022-08-03T14:53:42;2.60;;;0.88;;
7487;SDS011;3785;52.260;4.728;2022-08-03T14:57:02;2.72;;;0.80;;
7487;SDS011;3785;52.260;4.728;2022-08-03T15:00:23;2.53;;;0.77;;
7487;SDS011;3785;52.260;4.728;2022-08-03T15:03:44;2.20;;;0.77;;
7487;SDS011;3785;52.260;4.728;2022-08-03T15:07:06;3.40;;;0.70;;
7487;SDS011;3785;52.260;4.728;2022-08-03T15:10:27;2.13;;;0.70;;
7487;SDS011;3785;52.260;4.728;2022-08-03T15:13:47;3.50;;;0.70;;
7487;SDS011;3785;52.260;4.728;2022-08-03T15:17:08;1.75;;;0.50;;
7487;SDS011;3785;52.260;4.728;2022-08-03T15:20:28;2.22;;;0.88;;
7487;SDS011;3785;52.260;4.728;2022-08-03T15:23:49;2.53;;;0.60;;
7487;SDS011;3785;52.260;4.728;2022-08-03T15:27:10;3.50;;;0.50;;
7487;SDS011;3785;52.260;4.728;2022-08-03T15:30:31;1.98;;;0.60;;
7487;SDS011;3785;52.260;4.728;2022-08-03T15:33:54;2.65;;;0.60;;
7487;SDS011;3785;52.260;4.728;2022-08-03T15:37:15;3.72;;;0.60;;
7487;SDS011;3785;52.260;4.728;2022-08-03T15:40:36;2.30;;;0.60;;
7487;SDS011;3785;52.260;4.728;2022-08-03T15:43:56;2.00;;;0.60;;
7487;SDS011;3785;52.260;4.728;2022-08-03T15:47:17;2.42;;;0.70;;
7487;SDS011;3785;52.260;4.728;2022-08-03T15:50:37;2.50;;;0.60;;
7487;SDS011;3785;52.260;4.728;2022-08-03T15:53:58;2.15;;;0.40;;
7487;SDS011;3785;52.260;4.728;2022-08-03T15:57:19;2.67;;;0.60;;
7487;SDS011;3785;52.260;4.728;2022-08-03T16:00:40;1.23;;;0.52;;
7487;SDS011;3785;52.260;4.728;2022-08-03T16:04:01;2.55;;;0.63;;
7487;SDS011;3785;52.260;4.728;2022-08-03T16:07:22;2.47;;;0.40;;
7487;SDS011;3785;52.260;4.728;2022-08-03T16:11:01;1.60;;;0.63;;
7487;SDS011;3785;52.260;4.728;2022-08-03T16:14:21;2.00;;;0.75;;
7487;SDS011;3785;52.260;4.728;2022-08-03T16:17:42;1.10;;;0.47;;
7487;SDS011;3785;52.260;4.728;2022-08-03T16:21:02;3.13;;;0.70;;
7487;SDS011;3785;52.260;4.728;2022-08-03T16:24:23;1.40;;;0.60;;
7487;SDS011;3785;52.260;4.728;2022-08-03T16:27:44;1.90;;;0.70;;
7487;SDS011;3785;52.260;4.728;2022-08-03T16:31:04;4.85;;;0.85;;
7487;SDS011;3785;52.260;4.728;2022-08-03T16:34:25;1.42;;;0.60;;
7487;SDS011;3785;52.260;4.728;2022-08-03T16:37:46;2.90;;;0.45;;
7487;SDS011;3785;52.260;4.728;2022-08-03T16:41:09;2.80;;;0.77;;
7487;SDS011;3785;52.260;4.728;2022-08-03T16:44:30;1.45;;;0.60;;
7487;SDS011;3785;52.260;4.728;2022-08-03T16:47:51;2.40;;;0.63;;
7487;SDS011;3785;52.260;4.728;2022-08-03T16:51:11;2.45;;;0.73;;
7487;SDS011;3785;52.260;4.728;2022-08-03T16:54:32;1.40;;;0.50;;
7487;SDS011;3785;52.260;4.728;2022-08-03T16:57:52;2.05;;;0.85;;
7487;SDS011;3785;52.260;4.728;2022-08-03T17:01:13;1.48;;;0.45;;
7487;SDS011;3785;52.260;4.728;2022-08-03T17:04:33;2.53;;;0.70;;
7487;SDS011;3785;52.260;4.728;2022-08-03T17:07:54;1.95;;;0.63;;
7487;SDS011;3785;52.260;4.728;2022-08-03T17:11:15;3.30;;;1.00;;
7487;SDS011;3785;52.260;4.728;2022-08-03T17:14:35;3.97;;;0.80;;
7487;SDS011;3785;52.260;4.728;2022-08-03T17:18:00;1.73;;;0.70;;
7487;SDS011;3785;52.260;4.728;2022-08-03T17:21:28;2.08;;;0.60;;
7487;SDS011;3785;52.260;4.728;2022-08-03T17:24:50;2.72;;;0.60;;
7487;SDS011;3785;52.260;4.728;2022-08-03T17:28:12;2.05;;;0.75;;
7487;SDS011;3785;52.260;4.728;2022-08-03T17:31:33;1.35;;;0.80;;
7487;SDS011;3785;52.260;4.728;2022-08-03T17:34:54;1.77;;;1.08;;
7487;SDS011;3785;52.260;4.728;2022-08-03T17:38:14;3.65;;;0.77;;
7487;SDS011;3785;52.260;4.728;2022-08-03T17:41:35;1.52;;;0.70;;
7487;SDS011;3785;52.260;4.728;2022-08-03T17:44:56;3.80;;;0.68;;
7487;SDS011;3785;52.260;4.728;2022-08-03T17:48:18;1.77;;;0.63;;
7487;SDS011;3785;52.260;4.728;2022-08-03T17:51:40;1.73;;;0.90;;
7487;SDS011;3785;52.260;4.728;2022-08-03T17:55:10;1.73;;;0.75;;
7487;SDS011;3785;52.260;4.728;2022-08-03T17:58:54;11.23;;;0.95;;
7487;SDS011;3785;52.260;4.728;2022-08-03T18:02:43;3.03;;;0.80;;
7487;SDS011;3785;52.260;4.728;2022-08-03T18:06:30;3.22;;;0.70;;
7487;SDS011;3785;52.260;4.728;2022-08-03T18:09:56;4.03;;;0.70;;
7487;SDS011;3785;52.260;4.728;2022-08-03T18:13:21;1.30;;;0.77;;
7487;SDS011;3785;52.260;4.728;2022-08-03T18:16:44;2.05;;;0.85;;
7487;SDS011;3785;52.260;4.728;2022-08-03T18:20:08;3.25;;;0.70;;
7487;SDS011;3785;52.260;4.728;2022-08-03T18:23:29;3.85;;;0.80;;
7487;SDS011;3785;52.260;4.728;2022-08-03T18:26:50;2.38;;;0.80;;
7487;SDS011;3785;52.260;4.728;2022-08-03T18:30:11;1.30;;;0.60;;
7487;SDS011;3785;52.260;4.728;2022-08-03T18:33:36;1.85;;;0.70;;
7487;SDS011;3785;52.260;4.728;2022-08-03T18:36:58;2.47;;;0.90;;
7487;SDS011;3785;52.260;4.728;2022-08-03T18:40:20;1.88;;;1.02;;
7487;SDS011;3785;52.260;4.728;2022-08-03T18:43:42;2.38;;;0.93;;
7487;SDS011;3785;52.260;4.728;2022-08-03T18:58:18;3.20;;;0.90;;
7487;SDS011;3785;52.260;4.728;2022-08-03T19:01:43;3.03;;;1.05;;
7487;SDS011;3785;52.260;4.728;2022-08-03T19:05:06;1.95;;;0.65;;
7487;SDS011;3785;52.260;4.728;2022-08-03T19:08:35;1.90;;;1.00;;
7487;SDS011;3785;52.260;4.728;2022-08-03T19:12:11;2.20;;;0.65;;
7487;SDS011;3785;52.260;4.728;2022-08-03T19:15:41;2.25;;;0.60;;
7487;SDS011;3785;52.260;4.728;2022-08-03T19:19:10;3.22;;;0.85;;
7487;SDS011;3785;52.260;4.728;2022-08-03T19:22:31;2.03;;;0.63;;
7487;SDS011;3785;52.260;4.728;2022-08-03T19:25:52;3.20;;;0.50;;
7487;SDS011;3785;52.260;4.728;2022-08-03T19:29:13;1.50;;;0.68;;
7487;SDS011;3785;52.260;4.728;2022-08-03T19:32:37;1.45;;;0.60;;
7487;SDS011;3785;52.260;4.728;2022-08-03T19:36:00;2.75;;;0.68;;
7487;SDS011;3785;52.260;4.728;2022-08-03T19:39:20;1.35;;;0.80;;
7487;SDS011;3785;52.260;4.728;2022-08-03T19:42:42;2.75;;;0.98;;
7487;SDS011;3785;52.260;4.728;2022-08-03T19:46:05;1.75;;;0.95;;
7487;SDS011;3785;52.260;4.728;2022-08-03T19:49:39;2.72;;;0.90;;
7487;SDS011;3785;52.260;4.728;2022-08-03T19:53:07;3.03;;;1.20;;
7487;SDS011;3785;52.260;4.728;2022-08-03T19:56:29;2.95;;;0.95;;
7487;SDS011;3785;52.260;4.728;2022-08-03T19:59:51;1.85;;;1.15;;
7487;SDS011;3785;52.260;4.728;2022-08-03T20:03:12;2.45;;;1.00;;
7487;SDS011;3785;52.260;4.728;2022-08-03T20:06:33;3.10;;;1.17;;
7487;SDS011;3785;52.260;4.728;2022-08-03T20:09:54;2.58;;;1.08;;
7487;SDS011;3785;52.260;4.728;2022-08-03T20:13:14;4.65;;;1.30;;
7487;SDS011;3785;52.260;4.728;2022-08-03T20:16:35;2.97;;;1.10;;
7487;SDS011;3785;52.260;4.728;2022-08-03T20:19:56;3.05;;;1.05;;
7487;SDS011;3785;52.260;4.728;2022-08-03T20:23:17;2.25;;;1.10;;
7487;SDS011;3785;52.260;4.728;2022-08-03T20:26:38;3.55;;;1.10;;
7487;SDS011;3785;52.260;4.728;2022-08-03T20:30:00;3.65;;;1.10;;
7487;SDS011;3785;52.260;4.728;2022-08-03T20:33:21;1.70;;;1.02;;
7487;SDS011;3785;52.260;4.728;2022-08-03T20:36:41;2.90;;;0.93;;
7487;SDS011;3785;52.260;4.728;2022-08-03T20:40:03;2.33;;;0.77;;
7487;SDS011;3785;52.260;4.728;2022-08-03T20:43:24;2.28;;;1.00;;
7487;SDS011;3785;52.260;4.728;2022-08-03T20:46:45;2.90;;;1.00;;
7487;SDS011;3785;52.260;4.728;2022-08-03T20:50:05;2.13;;;0.82;;
7487;SDS011;3785;52.260;4.728;2022-08-03T20:53:27;3.70;;;1.13;;
7487;SDS011;3785;52.260;4.728;2022-08-03T20:56:48;2.75;;;1.10;;
7487;SDS011;3785;52.260;4.728;2022-08-03T21:00:09;3.83;;;1.38;;
7487;SDS011;3785;52.260;4.728;2022-08-03T21:03:35;2.60;;;1.15;;
7487;SDS011;3785;52.260;4.728;2022-08-03T21:07:01;2.30;;;1.30;;
7487;SDS011;3785;52.260;4.728;2022-08-03T21:10:26;2.20;;;1.25;;
7487;SDS011;3785;52.260;4.728;2022-08-03T21:13:54;2.95;;;1.20;;
7487;SDS011;3785;52.260;4.728;2022-08-03T21:17:15;2.45;;;0.95;;
7487;SDS011;3785;52.260;4.728;2022-08-03T21:20:40;2.53;;;1.20;;
7487;SDS011;3785;52.260;4.728;2022-08-03T21:24:02;2.80;;;1.00;;
7487;SDS011;3785;52.260;4.728;2022-08-03T21:27:24;2.35;;;1.20;;
7487;SDS011;3785;52.260;4.728;2022-08-03T21:30:45;2.53;;;1.02;;
7487;SDS011;3785;52.260;4.728;2022-08-03T21:34:05;1.83;;;1.20;;
7487;SDS011;3785;52.260;4.728;2022-08-03T21:37:26;2.20;;;1.20;;
7487;SDS011;3785;52.260;4.728;2022-08-03T21:40:48;2.38;;;1.38;;
7487;SDS011;3785;52.260;4.728;2022-08-03T21:44:10;3.30;;;1.38;;
7487;SDS011;3785;52.260;4.728;2022-08-03T21:47:31;3.42;;;1.00;;
7487;SDS011;3785;52.260;4.728;2022-08-03T21:50:56;2.60;;;1.10;;